sensor_id;sensor_type;location;lat;lon;timestamp;P1;durP1;ratioP1;P2;durP2;ratioP2
50291;SDS011;36190;54.980;73.388;2023-02-28T00:00:37;12.13;;;4.85;;
50291;SDS011;36190;54.980;73.388;2023-02-28T00:03:05;14.77;;;5.50;;
50291;SDS011;36190;54.980;73.388;2023-02-28T00:05:33;12.57;;;4.82;;
50291;SDS011;36190;54.980;73.388;2023-02-28T00:08:01;12.45;;;5.25;;
50291;SDS011;36190;54.980;73.388;2023-02-28T00:10:30;10.43;;;4.55;;
50291;SDS011;36190;54.980;73.388;2023-02-28T00:12:59;11.25;;;5.72;;
50291;SDS011;36190;54.980;73.388;2023-02-28T00:15:28;14.63;;;5.47;;
50291;SDS011;36190;54.980;73.388;2023-02-28T00:17:55;13.27;;;5.60;;
50291;SDS011;36190;54.980;73.388;2023-02-28T00:20:23;14.77;;;6.20;;
50291;SDS011;36190;54.980;73.388;2023-02-28T00:22:51;14.20;;;5.80;;
50291;SDS011;36190;54.980;73.388;2023-02-28T00:25:20;12.70;;;6.10;;
50291;SDS011;36190;54.980;73.388;2023-02-28T00:27:51;14.90;;;5.60;;
50291;SDS011;36190;54.980;73.388;2023-02-28T00:30:20;12.77;;;5.05;;
50291;SDS011;36190;54.980;73.388;2023-02-28T00:32:48;13.18;;;5.50;;
50291;SDS011;36190;54.980;73.388;2023-02-28T00:35:17;15.63;;;6.20;;
50291;SDS011;36190;54.980;73.388;2023-02-28T00:37:44;12.98;;;5.15;;
50291;SDS011;36190;54.980;73.388;2023-02-28T00:40:12;12.70;;;5.22;;
50291;SDS011;36190;54.980;73.388;2023-02-28T00:42:39;12.57;;;6.05;;
50291;SDS011;36190;54.980;73.388;2023-02-28T00:45:08;14.75;;;6.40;;
50291;SDS011;36190;54.980;73.388;2023-02-28T00:47:36;15.80;;;5.95;;
50291;SDS011;36190;54.980;73.388;2023-02-28T00:50:04;16.00;;;6.82;;
50291;SDS011;36190;54.980;73.388;2023-02-28T00:52:33;17.85;;;6.53;;
50291;SDS011;36190;54.980;73.388;2023-02-28T00:55:01;17.48;;;6.25;;
50291;SDS011;36190;54.980;73.388;2023-02-28T00:57:28;14.40;;;6.07;;
50291;SDS011;36190;54.980;73.388;2023-02-28T00:59:56;16.00;;;6.85;;
50291;SDS011;36190;54.980;73.388;2023-02-28T01:02:25;14.95;;;6.30;;
50291;SDS011;36190;54.980;73.388;2023-02-28T01:04:52;14.00;;;5.88;;
50291;SDS011;36190;54.980;73.388;2023-02-28T01:07:20;12.48;;;5.38;;
50291;SDS011;36190;54.980;73.388;2023-02-28T01:09:47;16.05;;;6.18;;
50291;SDS011;36190;54.980;73.388;2023-02-28T01:12:15;13.25;;;5.65;;
50291;SDS011;36190;54.980;73.388;2023-02-28T01:14:43;14.27;;;5.63;;
50291;SDS011;36190;54.980;73.388;2023-02-28T01:17:10;12.82;;;5.22;;
50291;SDS011;36190;54.980;73.388;2023-02-28T01:19:39;14.63;;;6.40;;
50291;SDS011;36190;54.980;73.388;2023-02-28T01:22:07;17.73;;;6.75;;
50291;SDS011;36190;54.980;73.388;2023-02-28T01:24:34;15.25;;;6.32;;
50291;SDS011;36190;54.980;73.388;2023-02-28T01:27:02;13.73;;;6.32;;
50291;SDS011;36190;54.980;73.388;2023-02-28T01:29:29;14.38;;;5.88;;
50291;SDS011;36190;54.980;73.388;2023-02-28T01:31:57;16.85;;;6.25;;
50291;SDS011;36190;54.980;73.388;2023-02-28T01:34:25;16.20;;;5.95;;
50291;SDS011;36190;54.980;73.388;2023-02-28T01:36:54;12.98;;;5.38;;
50291;SDS011;36190;54.980;73.388;2023-02-28T01:39:24;13.75;;;5.55;;
50291;SDS011;36190;54.980;73.388;2023-02-28T01:41:51;12.52;;;4.78;;
50291;SDS011;36190;54.980;73.388;2023-02-28T01:47:23;15.60;;;6.43;;
50291;SDS011;36190;54.980;73.388;2023-02-28T01:49:53;13.15;;;5.63;;
50291;SDS011;36190;54.980;73.388;2023-02-28T01:52:22;11.88;;;5.20;;
50291;SDS011;36190;54.980;73.388;2023-02-28T01:54:51;12.10;;;5.63;;
50291;SDS011;36190;54.980;73.388;2023-02-28T01:57:21;13.75;;;6.28;;
50291;SDS011;36190;54.980;73.388;2023-02-28T01:59:52;13.43;;;5.05;;
50291;SDS011;36190;54.980;73.388;2023-02-28T02:02:25;14.05;;;6.18;;
50291;SDS011;36190;54.980;73.388;2023-02-28T02:04:54;14.23;;;4.88;;
50291;SDS011;36190;54.980;73.388;2023-02-28T02:07:28;10.77;;;5.18;;
50291;SDS011;36190;54.980;73.388;2023-02-28T02:10:02;13.77;;;5.90;;
50291;SDS011;36190;54.980;73.388;2023-02-28T02:12:35;16.38;;;5.95;;
50291;SDS011;36190;54.980;73.388;2023-02-28T02:15:19;13.90;;;5.80;;
50291;SDS011;36190;54.980;73.388;2023-02-28T02:17:51;14.77;;;6.18;;
50291;SDS011;36190;54.980;73.388;2023-02-28T02:20:37;12.02;;;5.13;;
50291;SDS011;36190;54.980;73.388;2023-02-28T02:26:46;13.25;;;5.50;;
50291;SDS011;36190;54.980;73.388;2023-02-28T02:35:34;15.02;;;5.68;;
50291;SDS011;36190;54.980;73.388;2023-02-28T02:38:13;12.95;;;5.60;;
50291;SDS011;36190;54.980;73.388;2023-02-28T02:40:47;14.43;;;5.63;;
50291;SDS011;36190;54.980;73.388;2023-02-28T02:43:22;13.40;;;5.28;;
50291;SDS011;36190;54.980;73.388;2023-02-28T02:45:56;12.55;;;5.40;;
50291;SDS011;36190;54.980;73.388;2023-02-28T02:48:32;14.02;;;5.50;;
50291;SDS011;36190;54.980;73.388;2023-02-28T02:51:06;11.32;;;5.30;;
50291;SDS011;36190;54.980;73.388;2023-02-28T02:53:37;10.80;;;4.65;;
50291;SDS011;36190;54.980;73.388;2023-02-28T02:56:11;12.85;;;5.30;;
50291;SDS011;36190;54.980;73.388;2023-02-28T02:58:41;11.32;;;4.70;;
50291;SDS011;36190;54.980;73.388;2023-02-28T03:01:10;12.63;;;5.05;;
50291;SDS011;36190;54.980;73.388;2023-02-28T03:03:42;13.07;;;4.85;;
50291;SDS011;36190;54.980;73.388;2023-02-28T03:06:13;11.95;;;4.80;;
50291;SDS011;36190;54.980;73.388;2023-02-28T03:08:42;12.02;;;4.78;;
50291;SDS011;36190;54.980;73.388;2023-02-28T03:11:12;12.63;;;5.68;;
50291;SDS011;36190;54.980;73.388;2023-02-28T03:13:44;13.82;;;5.10;;
50291;SDS011;36190;54.980;73.388;2023-02-28T03:16:41;13.10;;;5.55;;
50291;SDS011;36190;54.980;73.388;2023-02-28T03:19:38;16.17;;;6.10;;
50291;SDS011;36190;54.980;73.388;2023-02-28T03:22:19;12.63;;;5.35;;
50291;SDS011;36190;54.980;73.388;2023-02-28T03:24:54;12.73;;;4.80;;
50291;SDS011;36190;54.980;73.388;2023-02-28T03:29:58;11.85;;;5.07;;
50291;SDS011;36190;54.980;73.388;2023-02-28T03:32:32;11.43;;;4.18;;
50291;SDS011;36190;54.980;73.388;2023-02-28T03:35:06;9.40;;;4.40;;
50291;SDS011;36190;54.980;73.388;2023-02-28T03:37:40;10.57;;;4.38;;
50291;SDS011;36190;54.980;73.388;2023-02-28T03:40:12;9.23;;;3.88;;
50291;SDS011;36190;54.980;73.388;2023-02-28T03:42:43;12.52;;;4.55;;
50291;SDS011;36190;54.980;73.388;2023-02-28T03:45:15;11.30;;;4.25;;
50291;SDS011;36190;54.980;73.388;2023-02-28T03:47:46;13.32;;;4.80;;
50291;SDS011;36190;54.980;73.388;2023-02-28T03:50:20;11.23;;;4.60;;
50291;SDS011;36190;54.980;73.388;2023-02-28T03:52:53;10.63;;;4.07;;
50291;SDS011;36190;54.980;73.388;2023-02-28T03:55:27;12.05;;;4.40;;
50291;SDS011;36190;54.980;73.388;2023-02-28T03:57:58;11.60;;;4.32;;
50291;SDS011;36190;54.980;73.388;2023-02-28T04:00:32;10.45;;;4.85;;
50291;SDS011;36190;54.980;73.388;2023-02-28T04:03:02;11.63;;;4.68;;
50291;SDS011;36190;54.980;73.388;2023-02-28T04:05:30;12.60;;;5.20;;
50291;SDS011;36190;54.980;73.388;2023-02-28T04:08:04;12.05;;;4.82;;
50291;SDS011;36190;54.980;73.388;2023-02-28T04:10:33;12.40;;;4.85;;
50291;SDS011;36190;54.980;73.388;2023-02-28T04:13:01;11.85;;;4.45;;
50291;SDS011;36190;54.980;73.388;2023-02-28T04:15:28;11.75;;;4.60;;
50291;SDS011;36190;54.980;73.388;2023-02-28T04:17:57;9.60;;;3.90;;
50291;SDS011;36190;54.980;73.388;2023-02-28T04:20:24;15.20;;;4.72;;
50291;SDS011;36190;54.980;73.388;2023-02-28T04:22:52;12.88;;;6.03;;
50291;SDS011;36190;54.980;73.388;2023-02-28T04:25:21;13.60;;;5.03;;
50291;SDS011;36190;54.980;73.388;2023-02-28T04:27:48;15.27;;;5.28;;
50291;SDS011;36190;54.980;73.388;2023-02-28T04:30:16;13.73;;;5.28;;
50291;SDS011;36190;54.980;73.388;2023-02-28T04:32:43;11.80;;;4.72;;
50291;SDS011;36190;54.980;73.388;2023-02-28T04:35:11;13.00;;;4.65;;
50291;SDS011;36190;54.980;73.388;2023-02-28T04:37:38;12.82;;;5.43;;
50291;SDS011;36190;54.980;73.388;2023-02-28T04:40:06;14.90;;;6.00;;
50291;SDS011;36190;54.980;73.388;2023-02-28T04:42:36;13.50;;;5.47;;
50291;SDS011;36190;54.980;73.388;2023-02-28T04:45:04;15.95;;;6.03;;
50291;SDS011;36190;54.980;73.388;2023-02-28T04:47:35;12.43;;;5.22;;
50291;SDS011;36190;54.980;73.388;2023-02-28T04:50:03;16.67;;;5.22;;
50291;SDS011;36190;54.980;73.388;2023-02-28T04:52:31;13.55;;;4.95;;
50291;SDS011;36190;54.980;73.388;2023-02-28T04:54:58;13.52;;;5.10;;
50291;SDS011;36190;54.980;73.388;2023-02-28T04:57:26;13.07;;;4.90;;
50291;SDS011;36190;54.980;73.388;2023-02-28T04:59:54;11.57;;;4.97;;
50291;SDS011;36190;54.980;73.388;2023-02-28T05:02:22;10.60;;;4.55;;
50291;SDS011;36190;54.980;73.388;2023-02-28T05:04:49;10.90;;;4.63;;
50291;SDS011;36190;54.980;73.388;2023-02-28T05:07:17;12.95;;;5.20;;
50291;SDS011;36190;54.980;73.388;2023-02-28T05:09:44;13.93;;;5.40;;
50291;SDS011;36190;54.980;73.388;2023-02-28T05:12:13;11.75;;;5.10;;
50291;SDS011;36190;54.980;73.388;2023-02-28T05:14:41;13.23;;;5.60;;
50291;SDS011;36190;54.980;73.388;2023-02-28T05:17:10;11.10;;;5.03;;
50291;SDS011;36190;54.980;73.388;2023-02-28T05:19:38;12.73;;;5.22;;
50291;SDS011;36190;54.980;73.388;2023-02-28T05:22:11;13.27;;;5.03;;
50291;SDS011;36190;54.980;73.388;2023-02-28T05:24:40;13.02;;;4.80;;
50291;SDS011;36190;54.980;73.388;2023-02-28T05:27:08;13.38;;;4.90;;
50291;SDS011;36190;54.980;73.388;2023-02-28T05:29:36;13.63;;;4.85;;
50291;SDS011;36190;54.980;73.388;2023-02-28T05:32:07;12.50;;;5.40;;
50291;SDS011;36190;54.980;73.388;2023-02-28T05:34:37;12.70;;;4.88;;
50291;SDS011;36190;54.980;73.388;2023-02-28T05:37:05;12.07;;;5.45;;
50291;SDS011;36190;54.980;73.388;2023-02-28T05:39:33;12.50;;;4.82;;
50291;SDS011;36190;54.980;73.388;2023-02-28T05:42:01;12.38;;;5.30;;
50291;SDS011;36190;54.980;73.388;2023-02-28T05:44:28;11.88;;;4.72;;
50291;SDS011;36190;54.980;73.388;2023-02-28T05:46:56;11.75;;;5.35;;
50291;SDS011;36190;54.980;73.388;2023-02-28T05:49:23;11.10;;;4.20;;
50291;SDS011;36190;54.980;73.388;2023-02-28T05:51:52;12.30;;;5.03;;
50291;SDS011;36190;54.980;73.388;2023-02-28T05:54:20;12.13;;;5.18;;
50291;SDS011;36190;54.980;73.388;2023-02-28T05:56:47;13.15;;;5.07;;
50291;SDS011;36190;54.980;73.388;2023-02-28T05:59:15;14.40;;;6.25;;
50291;SDS011;36190;54.980;73.388;2023-02-28T06:01:42;10.77;;;4.63;;
50291;SDS011;36190;54.980;73.388;2023-02-28T06:04:14;17.08;;;5.38;;
50291;SDS011;36190;54.980;73.388;2023-02-28T06:06:44;14.50;;;5.65;;
50291;SDS011;36190;54.980;73.388;2023-02-28T06:09:13;15.30;;;5.10;;
50291;SDS011;36190;54.980;73.388;2023-02-28T06:11:41;16.20;;;5.47;;
50291;SDS011;36190;54.980;73.388;2023-02-28T06:14:09;11.48;;;4.43;;
50291;SDS011;36190;54.980;73.388;2023-02-28T06:16:41;12.00;;;5.22;;
50291;SDS011;36190;54.980;73.388;2023-02-28T06:19:08;13.60;;;5.28;;
50291;SDS011;36190;54.980;73.388;2023-02-28T06:21:36;14.45;;;5.30;;
50291;SDS011;36190;54.980;73.388;2023-02-28T06:24:04;11.63;;;5.20;;
50291;SDS011;36190;54.980;73.388;2023-02-28T06:26:33;16.08;;;6.30;;
50291;SDS011;36190;54.980;73.388;2023-02-28T06:29:01;12.60;;;5.05;;
50291;SDS011;36190;54.980;73.388;2023-02-28T06:31:29;15.30;;;5.40;;
50291;SDS011;36190;54.980;73.388;2023-02-28T06:33:56;13.52;;;5.72;;
50291;SDS011;36190;54.980;73.388;2023-02-28T06:36:24;11.98;;;5.68;;
50291;SDS011;36190;54.980;73.388;2023-02-28T06:38:51;14.27;;;5.38;;
50291;SDS011;36190;54.980;73.388;2023-02-28T06:41:21;14.05;;;5.57;;
50291;SDS011;36190;54.980;73.388;2023-02-28T06:43:50;14.23;;;6.95;;
50291;SDS011;36190;54.980;73.388;2023-02-28T06:46:18;11.88;;;5.15;;
50291;SDS011;36190;54.980;73.388;2023-02-28T06:48:45;12.95;;;5.18;;
50291;SDS011;36190;54.980;73.388;2023-02-28T06:51:14;11.75;;;5.18;;
50291;SDS011;36190;54.980;73.388;2023-02-28T06:53:43;13.45;;;5.55;;
50291;SDS011;36190;54.980;73.388;2023-02-28T06:56:11;14.73;;;5.72;;
50291;SDS011;36190;54.980;73.388;2023-02-28T06:58:40;13.90;;;5.65;;
50291;SDS011;36190;54.980;73.388;2023-02-28T07:01:10;14.13;;;5.88;;
50291;SDS011;36190;54.980;73.388;2023-02-28T07:03:40;13.32;;;5.85;;
50291;SDS011;36190;54.980;73.388;2023-02-28T07:06:07;14.07;;;5.88;;
50291;SDS011;36190;54.980;73.388;2023-02-28T07:08:35;12.88;;;5.53;;
50291;SDS011;36190;54.980;73.388;2023-02-28T07:11:02;15.90;;;5.15;;
50291;SDS011;36190;54.980;73.388;2023-02-28T07:13:30;12.50;;;5.60;;
50291;SDS011;36190;54.980;73.388;2023-02-28T07:15:58;13.15;;;4.95;;
50291;SDS011;36190;54.980;73.388;2023-02-28T07:18:29;14.82;;;6.25;;
50291;SDS011;36190;54.980;73.388;2023-02-28T07:20:56;12.70;;;5.53;;
50291;SDS011;36190;54.980;73.388;2023-02-28T07:23:24;13.13;;;5.60;;
50291;SDS011;36190;54.980;73.388;2023-02-28T07:25:51;13.88;;;5.45;;
50291;SDS011;36190;54.980;73.388;2023-02-28T07:28:19;13.73;;;6.20;;
50291;SDS011;36190;54.980;73.388;2023-02-28T07:30:46;17.13;;;5.75;;
50291;SDS011;36190;54.980;73.388;2023-02-28T07:33:14;12.75;;;5.95;;
50291;SDS011;36190;54.980;73.388;2023-02-28T07:35:43;13.43;;;5.40;;
50291;SDS011;36190;54.980;73.388;2023-02-28T07:38:10;13.27;;;5.22;;
50291;SDS011;36190;54.980;73.388;2023-02-28T07:40:39;14.18;;;5.45;;
50291;SDS011;36190;54.980;73.388;2023-02-28T07:43:07;14.02;;;5.97;;
50291;SDS011;36190;54.980;73.388;2023-02-28T07:45:34;14.25;;;5.93;;
50291;SDS011;36190;54.980;73.388;2023-02-28T07:48:02;14.15;;;5.82;;
50291;SDS011;36190;54.980;73.388;2023-02-28T07:50:29;14.23;;;5.72;;
50291;SDS011;36190;54.980;73.388;2023-02-28T07:52:58;14.32;;;6.13;;
50291;SDS011;36190;54.980;73.388;2023-02-28T07:55:26;14.63;;;6.72;;
50291;SDS011;36190;54.980;73.388;2023-02-28T07:57:53;15.00;;;6.07;;
50291;SDS011;36190;54.980;73.388;2023-02-28T08:00:21;14.43;;;6.60;;
50291;SDS011;36190;54.980;73.388;2023-02-28T08:02:49;13.82;;;5.80;;
50291;SDS011;36190;54.980;73.388;2023-02-28T08:05:17;14.18;;;6.18;;
50291;SDS011;36190;54.980;73.388;2023-02-28T08:07:45;16.02;;;5.78;;
50291;SDS011;36190;54.980;73.388;2023-02-28T08:10:14;16.27;;;6.25;;
50291;SDS011;36190;54.980;73.388;2023-02-28T08:12:42;14.77;;;5.63;;
50291;SDS011;36190;54.980;73.388;2023-02-28T08:15:10;16.63;;;5.95;;
50291;SDS011;36190;54.980;73.388;2023-02-28T08:17:37;15.82;;;6.75;;
50291;SDS011;36190;54.980;73.388;2023-02-28T08:20:05;15.45;;;6.35;;
50291;SDS011;36190;54.980;73.388;2023-02-28T08:22:34;17.52;;;7.60;;
50291;SDS011;36190;54.980;73.388;2023-02-28T08:25:01;15.00;;;6.50;;
50291;SDS011;36190;54.980;73.388;2023-02-28T08:27:30;14.98;;;6.47;;
50291;SDS011;36190;54.980;73.388;2023-02-28T08:29:58;15.68;;;6.28;;
50291;SDS011;36190;54.980;73.388;2023-02-28T08:32:25;13.15;;;6.25;;
50291;SDS011;36190;54.980;73.388;2023-02-28T08:34:53;15.85;;;6.20;;
50291;SDS011;36190;54.980;73.388;2023-02-28T08:37:20;15.32;;;6.25;;
50291;SDS011;36190;54.980;73.388;2023-02-28T08:39:48;13.27;;;6.15;;
50291;SDS011;36190;54.980;73.388;2023-02-28T08:42:15;19.88;;;6.82;;
50291;SDS011;36190;54.980;73.388;2023-02-28T08:44:44;13.75;;;5.68;;
50291;SDS011;36190;54.980;73.388;2023-02-28T08:47:12;16.45;;;6.15;;
50291;SDS011;36190;54.980;73.388;2023-02-28T08:49:39;13.55;;;6.18;;
50291;SDS011;36190;54.980;73.388;2023-02-28T08:52:07;14.40;;;6.25;;
50291;SDS011;36190;54.980;73.388;2023-02-28T08:54:34;15.25;;;6.72;;
50291;SDS011;36190;54.980;73.388;2023-02-28T08:57:02;15.43;;;6.10;;
50291;SDS011;36190;54.980;73.388;2023-02-28T08:59:30;16.00;;;6.18;;
50291;SDS011;36190;54.980;73.388;2023-02-28T09:01:59;15.20;;;6.30;;
50291;SDS011;36190;54.980;73.388;2023-02-28T09:04:26;14.35;;;6.18;;
50291;SDS011;36190;54.980;73.388;2023-02-28T09:06:55;14.27;;;6.38;;
50291;SDS011;36190;54.980;73.388;2023-02-28T09:09:23;14.10;;;5.95;;
50291;SDS011;36190;54.980;73.388;2023-02-28T09:11:51;13.77;;;6.35;;
50291;SDS011;36190;54.980;73.388;2023-02-28T09:14:18;16.85;;;7.05;;
50291;SDS011;36190;54.980;73.388;2023-02-28T09:16:46;14.00;;;5.80;;
50291;SDS011;36190;54.980;73.388;2023-02-28T09:19:14;13.57;;;6.07;;
50291;SDS011;36190;54.980;73.388;2023-02-28T09:21:42;16.10;;;5.75;;
50291;SDS011;36190;54.980;73.388;2023-02-28T09:24:09;14.27;;;6.05;;
50291;SDS011;36190;54.980;73.388;2023-02-28T09:26:40;14.45;;;5.80;;
50291;SDS011;36190;54.980;73.388;2023-02-28T09:29:07;14.32;;;5.55;;
50291;SDS011;36190;54.980;73.388;2023-02-28T09:31:36;14.75;;;6.00;;
50291;SDS011;36190;54.980;73.388;2023-02-28T09:34:03;13.07;;;5.38;;
50291;SDS011;36190;54.980;73.388;2023-02-28T09:36:33;12.90;;;5.90;;
50291;SDS011;36190;54.980;73.388;2023-02-28T09:39:00;13.82;;;6.40;;
50291;SDS011;36190;54.980;73.388;2023-02-28T09:41:29;14.88;;;6.97;;
50291;SDS011;36190;54.980;73.388;2023-02-28T09:44:05;16.40;;;7.90;;
50291;SDS011;36190;54.980;73.388;2023-02-28T09:46:35;18.70;;;7.22;;
50291;SDS011;36190;54.980;73.388;2023-02-28T09:49:08;14.43;;;7.60;;
50291;SDS011;36190;54.980;73.388;2023-02-28T09:51:45;13.90;;;6.25;;
50291;SDS011;36190;54.980;73.388;2023-02-28T09:54:18;14.48;;;7.15;;
50291;SDS011;36190;54.980;73.388;2023-02-28T09:56:49;17.60;;;7.32;;
50291;SDS011;36190;54.980;73.388;2023-02-28T09:59:24;15.80;;;7.50;;
50291;SDS011;36190;54.980;73.388;2023-02-28T10:02:10;15.48;;;7.40;;
50291;SDS011;36190;54.980;73.388;2023-02-28T10:04:46;15.13;;;6.78;;
50291;SDS011;36190;54.980;73.388;2023-02-28T10:10:06;16.75;;;6.50;;
50291;SDS011;36190;54.980;73.388;2023-02-28T10:12:41;16.63;;;7.15;;
50291;SDS011;36190;54.980;73.388;2023-02-28T10:15:13;19.25;;;6.68;;
50291;SDS011;36190;54.980;73.388;2023-02-28T10:17:42;18.88;;;7.90;;
50291;SDS011;36190;54.980;73.388;2023-02-28T10:20:15;14.30;;;6.72;;
50291;SDS011;36190;54.980;73.388;2023-02-28T10:22:52;14.50;;;6.53;;
50291;SDS011;36190;54.980;73.388;2023-02-28T10:25:25;17.42;;;7.57;;
50291;SDS011;36190;54.980;73.388;2023-02-28T10:27:54;16.13;;;6.15;;
50291;SDS011;36190;54.980;73.388;2023-02-28T10:30:27;13.57;;;6.27;;
50291;SDS011;36190;54.980;73.388;2023-02-28T10:32:55;16.13;;;6.78;;
50291;SDS011;36190;54.980;73.388;2023-02-28T10:35:23;16.20;;;6.45;;
50291;SDS011;36190;54.980;73.388;2023-02-28T10:37:53;15.07;;;7.13;;
50291;SDS011;36190;54.980;73.388;2023-02-28T10:40:26;13.55;;;6.32;;
50291;SDS011;36190;54.980;73.388;2023-02-28T10:42:57;15.18;;;6.97;;
50291;SDS011;36190;54.980;73.388;2023-02-28T10:45:26;16.17;;;6.95;;
50291;SDS011;36190;54.980;73.388;2023-02-28T10:47:56;16.02;;;7.35;;
50291;SDS011;36190;54.980;73.388;2023-02-28T10:50:29;16.05;;;7.25;;
50291;SDS011;36190;54.980;73.388;2023-02-28T10:53:16;13.65;;;6.07;;
50291;SDS011;36190;54.980;73.388;2023-02-28T10:55:58;14.40;;;6.57;;
50291;SDS011;36190;54.980;73.388;2023-02-28T10:58:28;14.90;;;6.80;;
50291;SDS011;36190;54.980;73.388;2023-02-28T11:00:57;13.82;;;5.90;;
50291;SDS011;36190;54.980;73.388;2023-02-28T11:03:30;16.55;;;7.22;;
50291;SDS011;36190;54.980;73.388;2023-02-28T11:06:03;14.27;;;6.53;;
50291;SDS011;36190;54.980;73.388;2023-02-28T11:08:34;13.30;;;6.80;;
50291;SDS011;36190;54.980;73.388;2023-02-28T11:11:12;14.98;;;7.07;;
50291;SDS011;36190;54.980;73.388;2023-02-28T11:13:42;15.20;;;6.75;;
50291;SDS011;36190;54.980;73.388;2023-02-28T11:16:13;14.98;;;7.25;;
50291;SDS011;36190;54.980;73.388;2023-02-28T11:18:42;13.45;;;5.65;;
50291;SDS011;36190;54.980;73.388;2023-02-28T11:21:21;14.65;;;6.22;;
50291;SDS011;36190;54.980;73.388;2023-02-28T11:23:54;12.13;;;5.75;;
50291;SDS011;36190;54.980;73.388;2023-02-28T11:26:40;15.82;;;6.47;;
50291;SDS011;36190;54.980;73.388;2023-02-28T11:29:11;12.75;;;5.68;;
50291;SDS011;36190;54.980;73.388;2023-02-28T11:34:29;13.90;;;7.05;;
50291;SDS011;36190;54.980;73.388;2023-02-28T11:36:59;15.43;;;6.90;;
50291;SDS011;36190;54.980;73.388;2023-02-28T11:39:31;15.40;;;6.75;;
50291;SDS011;36190;54.980;73.388;2023-02-28T11:42:06;14.98;;;6.70;;
50291;SDS011;36190;54.980;73.388;2023-02-28T11:44:57;14.38;;;7.22;;
50291;SDS011;36190;54.980;73.388;2023-02-28T11:47:35;14.57;;;6.82;;
50291;SDS011;36190;54.980;73.388;2023-02-28T11:53:10;13.18;;;6.15;;
50291;SDS011;36190;54.980;73.388;2023-02-28T11:55:46;13.43;;;6.20;;
50291;SDS011;36190;54.980;73.388;2023-02-28T11:58:27;11.40;;;5.93;;
50291;SDS011;36190;54.980;73.388;2023-02-28T12:01:11;16.83;;;6.43;;
50291;SDS011;36190;54.980;73.388;2023-02-28T12:06:25;14.38;;;5.57;;
50291;SDS011;36190;54.980;73.388;2023-02-28T12:09:04;15.52;;;6.55;;
50291;SDS011;36190;54.980;73.388;2023-02-28T12:11:47;16.65;;;6.70;;
50291;SDS011;36190;54.980;73.388;2023-02-28T12:14:22;14.80;;;6.90;;
50291;SDS011;36190;54.980;73.388;2023-02-28T12:17:07;18.02;;;7.50;;
50291;SDS011;36190;54.980;73.388;2023-02-28T12:19:44;14.50;;;6.35;;
50291;SDS011;36190;54.980;73.388;2023-02-28T12:22:24;13.88;;;6.22;;
50291;SDS011;36190;54.980;73.388;2023-02-28T12:25:13;12.07;;;5.55;;
50291;SDS011;36190;54.980;73.388;2023-02-28T12:28:17;13.75;;;6.78;;
50291;SDS011;36190;54.980;73.388;2023-02-28T12:30:50;14.85;;;7.15;;
50291;SDS011;36190;54.980;73.388;2023-02-28T12:33:21;12.25;;;5.45;;
50291;SDS011;36190;54.980;73.388;2023-02-28T12:35:53;15.15;;;6.72;;
50291;SDS011;36190;54.980;73.388;2023-02-28T12:38:23;13.95;;;6.03;;
50291;SDS011;36190;54.980;73.388;2023-02-28T12:40:54;14.77;;;7.00;;
50291;SDS011;36190;54.980;73.388;2023-02-28T12:43:27;14.93;;;6.75;;
50291;SDS011;36190;54.980;73.388;2023-02-28T12:46:00;13.57;;;6.38;;
50291;SDS011;36190;54.980;73.388;2023-02-28T12:48:37;14.75;;;6.50;;
50291;SDS011;36190;54.980;73.388;2023-02-28T12:51:08;12.35;;;5.85;;
50291;SDS011;36190;54.980;73.388;2023-02-28T12:53:41;14.02;;;5.63;;
50291;SDS011;36190;54.980;73.388;2023-02-28T12:56:19;13.27;;;6.45;;
50291;SDS011;36190;54.980;73.388;2023-02-28T12:58:52;15.57;;;7.47;;
50291;SDS011;36190;54.980;73.388;2023-02-28T13:04:54;14.65;;;6.38;;
50291;SDS011;36190;54.980;73.388;2023-02-28T13:07:49;15.25;;;6.68;;
50291;SDS011;36190;54.980;73.388;2023-02-28T13:10:42;19.45;;;9.15;;
50291;SDS011;36190;54.980;73.388;2023-02-28T13:13:14;18.40;;;8.02;;
50291;SDS011;36190;54.980;73.388;2023-02-28T13:18:30;13.45;;;6.75;;
50291;SDS011;36190;54.980;73.388;2023-02-28T13:21:01;14.30;;;6.88;;
50291;SDS011;36190;54.980;73.388;2023-02-28T13:23:39;15.82;;;6.70;;
50291;SDS011;36190;54.980;73.388;2023-02-28T13:26:23;13.23;;;5.93;;
50291;SDS011;36190;54.980;73.388;2023-02-28T13:29:30;16.10;;;5.90;;
50291;SDS011;36190;54.980;73.388;2023-02-28T13:32:20;12.52;;;5.65;;
50291;SDS011;36190;54.980;73.388;2023-02-28T13:44:06;16.60;;;6.82;;
50291;SDS011;36190;54.980;73.388;2023-02-28T13:46:35;12.38;;;5.97;;
50291;SDS011;36190;54.980;73.388;2023-02-28T13:49:26;15.05;;;7.43;;
50291;SDS011;36190;54.980;73.388;2023-02-28T13:52:02;13.25;;;6.55;;
50291;SDS011;36190;54.980;73.388;2023-02-28T13:54:44;14.85;;;6.63;;
50291;SDS011;36190;54.980;73.388;2023-02-28T13:57:23;14.70;;;6.57;;
50291;SDS011;36190;54.980;73.388;2023-02-28T14:00:03;12.68;;;6.13;;
50291;SDS011;36190;54.980;73.388;2023-02-28T14:02:49;18.27;;;7.32;;
50291;SDS011;36190;54.980;73.388;2023-02-28T14:05:48;15.35;;;7.47;;
50291;SDS011;36190;54.980;73.388;2023-02-28T14:08:37;17.30;;;7.10;;
50291;SDS011;36190;54.980;73.388;2023-02-28T14:11:25;13.93;;;7.22;;
50291;SDS011;36190;54.980;73.388;2023-02-28T14:13:57;14.38;;;7.18;;
50291;SDS011;36190;54.980;73.388;2023-02-28T14:16:27;13.23;;;5.95;;
50291;SDS011;36190;54.980;73.388;2023-02-28T14:19:05;15.70;;;7.00;;
50291;SDS011;36190;54.980;73.388;2023-02-28T14:24:19;16.60;;;7.35;;
50291;SDS011;36190;54.980;73.388;2023-02-28T14:30:14;15.15;;;7.32;;
50291;SDS011;36190;54.980;73.388;2023-02-28T14:32:58;16.85;;;7.60;;
50291;SDS011;36190;54.980;73.388;2023-02-28T14:35:40;16.42;;;7.78;;
50291;SDS011;36190;54.980;73.388;2023-02-28T14:38:22;14.07;;;6.90;;
50291;SDS011;36190;54.980;73.388;2023-02-28T14:40:54;17.63;;;8.15;;
50291;SDS011;36190;54.980;73.388;2023-02-28T14:43:25;17.35;;;7.60;;
50291;SDS011;36190;54.980;73.388;2023-02-28T14:45:54;20.27;;;8.32;;
50291;SDS011;36190;54.980;73.388;2023-02-28T14:48:24;16.70;;;7.50;;
50291;SDS011;36190;54.980;73.388;2023-02-28T14:50:53;13.88;;;6.57;;
50291;SDS011;36190;54.980;73.388;2023-02-28T14:53:25;19.55;;;7.75;;
50291;SDS011;36190;54.980;73.388;2023-02-28T14:55:54;15.07;;;7.40;;
50291;SDS011;36190;54.980;73.388;2023-02-28T14:58:23;17.08;;;7.63;;
50291;SDS011;36190;54.980;73.388;2023-02-28T15:00:53;14.43;;;7.05;;
50291;SDS011;36190;54.980;73.388;2023-02-28T15:03:24;15.30;;;7.00;;
50291;SDS011;36190;54.980;73.388;2023-02-28T15:05:57;15.30;;;7.07;;
50291;SDS011;36190;54.980;73.388;2023-02-28T15:08:27;15.60;;;6.55;;
50291;SDS011;36190;54.980;73.388;2023-02-28T15:11:00;17.75;;;7.28;;
50291;SDS011;36190;54.980;73.388;2023-02-28T15:13:32;16.95;;;7.30;;
50291;SDS011;36190;54.980;73.388;2023-02-28T15:16:03;18.83;;;7.18;;
50291;SDS011;36190;54.980;73.388;2023-02-28T15:18:39;14.40;;;6.57;;
50291;SDS011;36190;54.980;73.388;2023-02-28T15:21:13;17.65;;;7.50;;
50291;SDS011;36190;54.980;73.388;2023-02-28T15:23:45;18.42;;;8.00;;
50291;SDS011;36190;54.980;73.388;2023-02-28T15:26:16;15.80;;;7.10;;
50291;SDS011;36190;54.980;73.388;2023-02-28T15:28:47;16.55;;;7.80;;
50291;SDS011;36190;54.980;73.388;2023-02-28T15:31:19;16.98;;;7.55;;
50291;SDS011;36190;54.980;73.388;2023-02-28T15:33:53;18.02;;;8.07;;